sensor_id;sensor_type;location;lat;lon;timestamp;P1;durP1;ratioP1;P2;durP2;ratioP2
1276;SDS011;631;51.024;13.826;2023-06-14T00:00:18;13.40;;;12.70;;
1276;SDS011;631;51.024;13.826;2023-06-14T00:02:44;14.33;;;13.53;;
1276;SDS011;631;51.024;13.826;2023-06-14T00:05:10;14.73;;;13.77;;
1276;SDS011;631;51.024;13.826;2023-06-14T00:07:37;14.20;;;13.40;;
1276;SDS011;631;51.024;13.826;2023-06-14T00:10:07;15.40;;;14.07;;
1276;SDS011;631;51.024;13.826;2023-06-14T00:12:34;13.93;;;13.20;;
1276;SDS011;631;51.024;13.826;2023-06-14T00:15:00;14.27;;;13.37;;
1276;SDS011;631;51.024;13.826;2023-06-14T00:17:28;13.30;;;12.50;;
1276;SDS011;631;51.024;13.826;2023-06-14T00:19:58;13.50;;;12.80;;
1276;SDS011;631;51.024;13.826;2023-06-14T00:22:24;13.23;;;12.53;;
1276;SDS011;631;51.024;13.826;2023-06-14T00:24:53;14.40;;;13.57;;
1276;SDS011;631;51.024;13.826;2023-06-14T00:27:18;13.90;;;13.07;;
1276;SDS011;631;51.024;13.826;2023-06-14T00:29:44;14.73;;;13.63;;
1276;SDS011;631;51.024;13.826;2023-06-14T00:32:10;14.43;;;13.63;;
1276;SDS011;631;51.024;13.826;2023-06-14T00:34:36;14.40;;;13.70;;
1276;SDS011;631;51.024;13.826;2023-06-14T00:37:01;14.50;;;13.70;;
1276;SDS011;631;51.024;13.826;2023-06-14T00:39:27;14.90;;;14.10;;
1276;SDS011;631;51.024;13.826;2023-06-14T00:41:53;14.17;;;13.37;;
1276;SDS011;631;51.024;13.826;2023-06-14T00:44:18;14.37;;;13.57;;
1276;SDS011;631;51.024;13.826;2023-06-14T00:46:47;14.60;;;13.70;;
1276;SDS011;631;51.024;13.826;2023-06-14T00:49:16;13.73;;;13.00;;
1276;SDS011;631;51.024;13.826;2023-06-14T00:51:44;14.43;;;13.63;;
1276;SDS011;631;51.024;13.826;2023-06-14T00:54:11;13.83;;;13.03;;
1276;SDS011;631;51.024;13.826;2023-06-14T00:56:37;13.80;;;13.00;;
1276;SDS011;631;51.024;13.826;2023-06-14T00:59:02;13.93;;;13.17;;
1276;SDS011;631;51.024;13.826;2023-06-14T01:01:29;13.80;;;13.00;;
1276;SDS011;631;51.024;13.826;2023-06-14T01:03:57;14.00;;;13.13;;
1276;SDS011;631;51.024;13.826;2023-06-14T01:09:10;14.30;;;13.40;;
1276;SDS011;631;51.024;13.826;2023-06-14T01:11:59;13.57;;;12.87;;
1276;SDS011;631;51.024;13.826;2023-06-14T01:14:28;14.33;;;13.53;;
1276;SDS011;631;51.024;13.826;2023-06-14T01:16:56;14.10;;;13.30;;
1276;SDS011;631;51.024;13.826;2023-06-14T01:19:24;13.87;;;13.17;;
1276;SDS011;631;51.024;13.826;2023-06-14T01:21:50;14.67;;;13.77;;
1276;SDS011;631;51.024;13.826;2023-06-14T01:24:17;14.90;;;13.90;;
1276;SDS011;631;51.024;13.826;2023-06-14T01:26:51;14.33;;;13.50;;
1276;SDS011;631;51.024;13.826;2023-06-14T01:29:21;14.40;;;13.50;;
1276;SDS011;631;51.024;13.826;2023-06-14T01:31:49;14.40;;;13.60;;
1276;SDS011;631;51.024;13.826;2023-06-14T01:34:15;14.50;;;13.70;;
1276;SDS011;631;51.024;13.826;2023-06-14T01:36:41;14.40;;;13.50;;
1276;SDS011;631;51.024;13.826;2023-06-14T01:39:13;14.60;;;13.80;;
1276;SDS011;631;51.024;13.826;2023-06-14T01:41:40;14.40;;;13.50;;
1276;SDS011;631;51.024;13.826;2023-06-14T01:44:07;14.60;;;13.80;;
1276;SDS011;631;51.024;13.826;2023-06-14T01:46:34;15.30;;;14.17;;
1276;SDS011;631;51.024;13.826;2023-06-14T01:49:01;14.33;;;13.33;;
1276;SDS011;631;51.024;13.826;2023-06-14T01:51:27;13.90;;;13.10;;
1276;SDS011;631;51.024;13.826;2023-06-14T01:53:52;14.10;;;13.20;;
1276;SDS011;631;51.024;13.826;2023-06-14T01:56:18;14.63;;;13.73;;
1276;SDS011;631;51.024;13.826;2023-06-14T01:58:44;14.40;;;13.20;;
1276;SDS011;631;51.024;13.826;2023-06-14T02:01:10;13.47;;;12.70;;
1276;SDS011;631;51.024;13.826;2023-06-14T02:03:37;13.63;;;12.83;;
1276;SDS011;631;51.024;13.826;2023-06-14T02:06:04;14.37;;;13.53;;
1276;SDS011;631;51.024;13.826;2023-06-14T02:08:29;14.20;;;13.40;;
1276;SDS011;631;51.024;13.826;2023-06-14T02:10:55;13.87;;;13.07;;
1276;SDS011;631;51.024;13.826;2023-06-14T02:13:21;13.67;;;12.97;;
1276;SDS011;631;51.024;13.826;2023-06-14T02:15:46;14.07;;;13.27;;
1276;SDS011;631;51.024;13.826;2023-06-14T02:18:16;13.73;;;12.93;;
1276;SDS011;631;51.024;13.826;2023-06-14T02:20:41;13.70;;;12.90;;
1276;SDS011;631;51.024;13.826;2023-06-14T02:23:07;15.43;;;14.33;;
1276;SDS011;631;51.024;13.826;2023-06-14T02:25:32;15.10;;;14.20;;
1276;SDS011;631;51.024;13.826;2023-06-14T02:27:58;15.00;;;14.10;;
1276;SDS011;631;51.024;13.826;2023-06-14T02:30:24;15.20;;;14.00;;
1276;SDS011;631;51.024;13.826;2023-06-14T02:32:49;15.77;;;14.70;;
1276;SDS011;631;51.024;13.826;2023-06-14T02:35:16;15.47;;;14.60;;
1276;SDS011;631;51.024;13.826;2023-06-14T02:37:41;15.47;;;14.47;;
1276;SDS011;631;51.024;13.826;2023-06-14T02:40:07;15.93;;;14.93;;
1276;SDS011;631;51.024;13.826;2023-06-14T02:42:34;15.20;;;14.30;;
1276;SDS011;631;51.024;13.826;2023-06-14T02:44:59;15.40;;;14.50;;
1276;SDS011;631;51.024;13.826;2023-06-14T02:47:27;16.13;;;15.03;;
1276;SDS011;631;51.024;13.826;2023-06-14T02:49:52;16.00;;;14.90;;
1276;SDS011;631;51.024;13.826;2023-06-14T02:52:18;15.60;;;14.60;;
1276;SDS011;631;51.024;13.826;2023-06-14T02:54:45;16.03;;;14.93;;
1276;SDS011;631;51.024;13.826;2023-06-14T02:57:12;15.80;;;14.80;;
1276;SDS011;631;51.024;13.826;2023-06-14T02:59:37;15.57;;;14.63;;
1276;SDS011;631;51.024;13.826;2023-06-14T03:02:03;15.37;;;14.47;;
1276;SDS011;631;51.024;13.826;2023-06-14T03:04:30;16.70;;;15.60;;
1276;SDS011;631;51.024;13.826;2023-06-14T03:06:59;15.20;;;14.30;;
1276;SDS011;631;51.024;13.826;2023-06-14T03:09:27;15.40;;;14.40;;
1276;SDS011;631;51.024;13.826;2023-06-14T03:11:53;15.93;;;14.93;;
1276;SDS011;631;51.024;13.826;2023-06-14T03:14:21;16.10;;;15.00;;
1276;SDS011;631;51.024;13.826;2023-06-14T03:16:47;15.47;;;14.47;;
1276;SDS011;631;51.024;13.826;2023-06-14T03:19:15;15.90;;;15.00;;
1276;SDS011;631;51.024;13.826;2023-06-14T03:21:41;15.80;;;14.80;;
1276;SDS011;631;51.024;13.826;2023-06-14T03:24:09;15.93;;;14.93;;
1276;SDS011;631;51.024;13.826;2023-06-14T03:26:35;16.13;;;15.13;;
1276;SDS011;631;51.024;13.826;2023-06-14T03:29:02;15.43;;;14.53;;
1276;SDS011;631;51.024;13.826;2023-06-14T03:31:28;15.33;;;14.33;;
1276;SDS011;631;51.024;13.826;2023-06-14T03:33:57;15.70;;;14.60;;
1276;SDS011;631;51.024;13.826;2023-06-14T03:36:23;15.23;;;14.27;;
1276;SDS011;631;51.024;13.826;2023-06-14T03:38:50;16.10;;;15.10;;
1276;SDS011;631;51.024;13.826;2023-06-14T03:41:15;16.07;;;15.03;;
1276;SDS011;631;51.024;13.826;2023-06-14T03:43:41;15.57;;;14.47;;
1276;SDS011;631;51.024;13.826;2023-06-14T03:46:06;14.83;;;13.93;;
1276;SDS011;631;51.024;13.826;2023-06-14T03:48:33;15.67;;;14.57;;
1276;SDS011;631;51.024;13.826;2023-06-14T03:50:58;15.73;;;14.63;;
1276;SDS011;631;51.024;13.826;2023-06-14T03:53:24;14.53;;;13.63;;
1276;SDS011;631;51.024;13.826;2023-06-14T03:55:50;15.80;;;14.80;;
1276;SDS011;631;51.024;13.826;2023-06-14T03:58:18;15.53;;;14.53;;
1276;SDS011;631;51.024;13.826;2023-06-14T04:00:44;15.20;;;14.20;;
1276;SDS011;631;51.024;13.826;2023-06-14T04:03:11;15.90;;;14.90;;
1276;SDS011;631;51.024;13.826;2023-06-14T04:05:38;15.57;;;14.50;;
1276;SDS011;631;51.024;13.826;2023-06-14T04:08:07;15.03;;;14.03;;
1276;SDS011;631;51.024;13.826;2023-06-14T04:10:39;15.07;;;14.17;;
1276;SDS011;631;51.024;13.826;2023-06-14T04:13:05;15.40;;;14.00;;
1276;SDS011;631;51.024;13.826;2023-06-14T04:15:32;16.03;;;14.83;;
1276;SDS011;631;51.024;13.826;2023-06-14T04:17:58;15.80;;;14.80;;
1276;SDS011;631;51.024;13.826;2023-06-14T04:20:24;15.10;;;14.13;;
1276;SDS011;631;51.024;13.826;2023-06-14T04:22:52;15.00;;;13.97;;
1276;SDS011;631;51.024;13.826;2023-06-14T04:25:18;15.63;;;14.63;;
1276;SDS011;631;51.024;13.826;2023-06-14T04:27:44;15.77;;;14.57;;
1276;SDS011;631;51.024;13.826;2023-06-14T04:30:12;15.20;;;14.10;;
1276;SDS011;631;51.024;13.826;2023-06-14T04:32:38;15.90;;;14.80;;
1276;SDS011;631;51.024;13.826;2023-06-14T04:35:07;15.03;;;13.93;;
1276;SDS011;631;51.024;13.826;2023-06-14T04:37:33;17.00;;;15.80;;
1276;SDS011;631;51.024;13.826;2023-06-14T04:39:59;15.70;;;14.60;;
1276;SDS011;631;51.024;13.826;2023-06-14T04:42:25;17.20;;;16.00;;
1276;SDS011;631;51.024;13.826;2023-06-14T04:44:56;16.00;;;14.90;;
1276;SDS011;631;51.024;13.826;2023-06-14T04:47:22;17.23;;;15.93;;
1276;SDS011;631;51.024;13.826;2023-06-14T04:49:55;16.03;;;14.90;;
1276;SDS011;631;51.024;13.826;2023-06-14T04:52:22;16.20;;;15.10;;
1276;SDS011;631;51.024;13.826;2023-06-14T04:54:48;16.97;;;15.70;;
1276;SDS011;631;51.024;13.826;2023-06-14T04:57:13;17.60;;;15.10;;
1276;SDS011;631;51.024;13.826;2023-06-14T04:59:42;16.03;;;14.83;;
1276;SDS011;631;51.024;13.826;2023-06-14T05:02:09;16.37;;;15.20;;
1276;SDS011;631;51.024;13.826;2023-06-14T05:04:36;16.47;;;15.47;;
1276;SDS011;631;51.024;13.826;2023-06-14T05:07:05;17.37;;;16.17;;
1276;SDS011;631;51.024;13.826;2023-06-14T05:09:35;16.60;;;15.50;;
1276;SDS011;631;51.024;13.826;2023-06-14T05:12:01;16.30;;;15.10;;
1276;SDS011;631;51.024;13.826;2023-06-14T05:14:27;16.90;;;15.70;;
1276;SDS011;631;51.024;13.826;2023-06-14T05:16:53;16.37;;;15.17;;
1276;SDS011;631;51.024;13.826;2023-06-14T05:19:19;16.60;;;15.40;;
1276;SDS011;631;51.024;13.826;2023-06-14T05:21:45;15.53;;;14.53;;
1276;SDS011;631;51.024;13.826;2023-06-14T05:24:12;15.40;;;14.40;;
1276;SDS011;631;51.024;13.826;2023-06-14T05:26:38;15.13;;;14.23;;
1276;SDS011;631;51.024;13.826;2023-06-14T05:29:04;15.03;;;14.13;;
1276;SDS011;631;51.024;13.826;2023-06-14T05:31:29;15.93;;;14.83;;
1276;SDS011;631;51.024;13.826;2023-06-14T05:33:56;14.93;;;13.93;;
1276;SDS011;631;51.024;13.826;2023-06-14T05:36:21;15.97;;;14.97;;
1276;SDS011;631;51.024;13.826;2023-06-14T05:38:47;16.43;;;15.43;;
1276;SDS011;631;51.024;13.826;2023-06-14T05:41:13;15.43;;;14.43;;
1276;SDS011;631;51.024;13.826;2023-06-14T05:43:39;15.30;;;14.40;;
1276;SDS011;631;51.024;13.826;2023-06-14T05:46:04;16.97;;;15.87;;
1276;SDS011;631;51.024;13.826;2023-06-14T05:48:30;15.40;;;14.33;;
1276;SDS011;631;51.024;13.826;2023-06-14T05:50:56;17.60;;;16.40;;
1276;SDS011;631;51.024;13.826;2023-06-14T05:53:22;15.87;;;14.77;;
1276;SDS011;631;51.024;13.826;2023-06-14T05:55:47;16.00;;;14.90;;
1276;SDS011;631;51.024;13.826;2023-06-14T05:58:14;16.40;;;15.40;;
1276;SDS011;631;51.024;13.826;2023-06-14T06:00:39;16.57;;;15.47;;
1276;SDS011;631;51.024;13.826;2023-06-14T06:03:05;15.50;;;14.57;;
1276;SDS011;631;51.024;13.826;2023-06-14T06:05:33;16.47;;;15.37;;
1276;SDS011;631;51.024;13.826;2023-06-14T06:07:58;15.80;;;14.80;;
1276;SDS011;631;51.024;13.826;2023-06-14T06:10:25;15.63;;;14.60;;
1276;SDS011;631;51.024;13.826;2023-06-14T06:12:51;16.57;;;15.27;;
1276;SDS011;631;51.024;13.826;2023-06-14T06:15:17;15.87;;;14.87;;
1276;SDS011;631;51.024;13.826;2023-06-14T06:17:43;16.43;;;15.17;;
1276;SDS011;631;51.024;13.826;2023-06-14T06:20:09;13.87;;;12.97;;
1276;SDS011;631;51.024;13.826;2023-06-14T06:22:36;15.80;;;14.80;;
1276;SDS011;631;51.024;13.826;2023-06-14T06:25:03;15.53;;;14.43;;
1276;SDS011;631;51.024;13.826;2023-06-14T06:27:29;15.23;;;14.23;;
1276;SDS011;631;51.024;13.826;2023-06-14T06:29:54;16.37;;;15.37;;
1276;SDS011;631;51.024;13.826;2023-06-14T06:32:21;15.30;;;14.40;;
1276;SDS011;631;51.024;13.826;2023-06-14T06:34:46;16.63;;;15.53;;
1276;SDS011;631;51.024;13.826;2023-06-14T06:37:12;16.00;;;14.90;;
1276;SDS011;631;51.024;13.826;2023-06-14T06:39:39;16.50;;;15.30;;
1276;SDS011;631;51.024;13.826;2023-06-14T06:42:04;15.80;;;14.70;;
1276;SDS011;631;51.024;13.826;2023-06-14T06:44:31;15.30;;;14.20;;
1276;SDS011;631;51.024;13.826;2023-06-14T06:46:57;16.53;;;15.43;;
1276;SDS011;631;51.024;13.826;2023-06-14T06:49:23;14.60;;;13.70;;
1276;SDS011;631;51.024;13.826;2023-06-14T06:52:04;14.63;;;13.73;;
1276;SDS011;631;51.024;13.826;2023-06-14T06:54:31;15.87;;;14.80;;
1276;SDS011;631;51.024;13.826;2023-06-14T06:56:57;16.60;;;15.50;;
1276;SDS011;631;51.024;13.826;2023-06-14T06:59:24;16.17;;;15.27;;
1276;SDS011;631;51.024;13.826;2023-06-14T07:01:50;15.20;;;14.20;;
1276;SDS011;631;51.024;13.826;2023-06-14T07:04:16;16.33;;;15.33;;
1276;SDS011;631;51.024;13.826;2023-06-14T07:06:42;16.13;;;15.03;;
1276;SDS011;631;51.024;13.826;2023-06-14T07:09:08;16.03;;;15.03;;
1276;SDS011;631;51.024;13.826;2023-06-14T07:11:40;15.77;;;14.70;;
1276;SDS011;631;51.024;13.826;2023-06-14T07:14:06;16.30;;;15.00;;
1276;SDS011;631;51.024;13.826;2023-06-14T07:16:32;15.37;;;14.37;;
1276;SDS011;631;51.024;13.826;2023-06-14T07:18:58;16.20;;;15.20;;
1276;SDS011;631;51.024;13.826;2023-06-14T07:21:25;16.30;;;15.30;;
1276;SDS011;631;51.024;13.826;2023-06-14T07:23:52;15.43;;;14.37;;
1276;SDS011;631;51.024;13.826;2023-06-14T07:26:18;15.30;;;14.27;;
1276;SDS011;631;51.024;13.826;2023-06-14T07:28:44;16.17;;;15.17;;
1276;SDS011;631;51.024;13.826;2023-06-14T07:31:13;15.33;;;14.33;;
1276;SDS011;631;51.024;13.826;2023-06-14T07:33:40;14.50;;;13.53;;
1276;SDS011;631;51.024;13.826;2023-06-14T07:36:06;14.80;;;13.87;;
1276;SDS011;631;51.024;13.826;2023-06-14T07:38:32;15.27;;;14.37;;
1276;SDS011;631;51.024;13.826;2023-06-14T07:40:58;14.83;;;13.80;;
1276;SDS011;631;51.024;13.826;2023-06-14T07:43:24;15.27;;;14.37;;
1276;SDS011;631;51.024;13.826;2023-06-14T07:45:50;13.70;;;12.90;;
1276;SDS011;631;51.024;13.826;2023-06-14T07:48:16;13.53;;;12.77;;
1276;SDS011;631;51.024;13.826;2023-06-14T07:50:42;13.77;;;13.07;;
1276;SDS011;631;51.024;13.826;2023-06-14T07:53:08;14.00;;;13.20;;
1276;SDS011;631;51.024;13.826;2023-06-14T07:55:33;12.77;;;12.07;;
1276;SDS011;631;51.024;13.826;2023-06-14T07:58:02;12.80;;;12.10;;
1276;SDS011;631;51.024;13.826;2023-06-14T08:00:28;13.90;;;13.00;;
1276;SDS011;631;51.024;13.826;2023-06-14T08:02:53;13.40;;;12.60;;
1276;SDS011;631;51.024;13.826;2023-06-14T08:05:23;12.97;;;12.27;;
1276;SDS011;631;51.024;13.826;2023-06-14T08:07:50;12.60;;;12.00;;
1276;SDS011;631;51.024;13.826;2023-06-14T08:10:16;12.73;;;12.03;;
1276;SDS011;631;51.024;13.826;2023-06-14T08:12:42;13.00;;;12.30;;
1276;SDS011;631;51.024;13.826;2023-06-14T08:15:08;13.10;;;12.40;;
1276;SDS011;631;51.024;13.826;2023-06-14T08:17:34;12.60;;;11.90;;
1276;SDS011;631;51.024;13.826;2023-06-14T08:20:00;13.10;;;12.37;;
1276;SDS011;631;51.024;13.826;2023-06-14T08:22:25;13.23;;;12.63;;
1276;SDS011;631;51.024;13.826;2023-06-14T08:24:53;12.50;;;11.90;;
1276;SDS011;631;51.024;13.826;2023-06-14T08:27:19;13.50;;;12.80;;
1276;SDS011;631;51.024;13.826;2023-06-14T08:29:45;12.13;;;11.43;;
1276;SDS011;631;51.024;13.826;2023-06-14T08:32:11;12.10;;;11.50;;
1276;SDS011;631;51.024;13.826;2023-06-14T08:34:37;12.40;;;11.70;;
1276;SDS011;631;51.024;13.826;2023-06-14T08:37:03;11.97;;;11.37;;
1276;SDS011;631;51.024;13.826;2023-06-14T08:39:30;12.17;;;11.57;;
1276;SDS011;631;51.024;13.826;2023-06-14T08:41:56;12.50;;;11.80;;
1276;SDS011;631;51.024;13.826;2023-06-14T08:44:23;11.30;;;10.70;;
1276;SDS011;631;51.024;13.826;2023-06-14T08:46:48;12.00;;;11.40;;
1276;SDS011;631;51.024;13.826;2023-06-14T08:49:17;12.87;;;11.90;;
1276;SDS011;631;51.024;13.826;2023-06-14T08:51:43;11.80;;;11.10;;
1276;SDS011;631;51.024;13.826;2023-06-14T08:54:09;13.00;;;12.30;;
1276;SDS011;631;51.024;13.826;2023-06-14T08:56:37;12.60;;;11.90;;
1276;SDS011;631;51.024;13.826;2023-06-14T08:59:03;12.87;;;12.20;;
1276;SDS011;631;51.024;13.826;2023-06-14T09:01:34;12.80;;;12.00;;
1276;SDS011;631;51.024;13.826;2023-06-14T09:04:01;11.37;;;10.87;;
1276;SDS011;631;51.024;13.826;2023-06-14T09:06:27;12.23;;;11.63;;
1276;SDS011;631;51.024;13.826;2023-06-14T09:08:54;12.00;;;11.40;;
1276;SDS011;631;51.024;13.826;2023-06-14T09:11:22;11.93;;;11.33;;
1276;SDS011;631;51.024;13.826;2023-06-14T09:13:48;12.40;;;11.80;;
1276;SDS011;631;51.024;13.826;2023-06-14T09:16:14;12.30;;;11.70;;
1276;SDS011;631;51.024;13.826;2023-06-14T09:18:43;13.07;;;12.43;;
1276;SDS011;631;51.024;13.826;2023-06-14T09:21:10;12.97;;;12.27;;
1276;SDS011;631;51.024;13.826;2023-06-14T09:23:40;12.50;;;11.80;;
1276;SDS011;631;51.024;13.826;2023-06-14T09:26:10;13.87;;;13.17;;
1276;SDS011;631;51.024;13.826;2023-06-14T09:28:43;12.47;;;11.87;;
1276;SDS011;631;51.024;13.826;2023-06-14T09:31:17;14.20;;;13.40;;
1276;SDS011;631;51.024;13.826;2023-06-14T09:33:43;13.07;;;12.27;;
1276;SDS011;631;51.024;13.826;2023-06-14T09:36:23;13.67;;;12.97;;
1276;SDS011;631;51.024;13.826;2023-06-14T09:38:57;11.23;;;10.63;;
1276;SDS011;631;51.024;13.826;2023-06-14T09:43:59;13.60;;;12.90;;
1276;SDS011;631;51.024;13.826;2023-06-14T09:46:27;13.77;;;12.97;;
1276;SDS011;631;51.024;13.826;2023-06-14T09:48:59;13.10;;;12.40;;
1276;SDS011;631;51.024;13.826;2023-06-14T09:51:26;11.60;;;11.00;;
1276;SDS011;631;51.024;13.826;2023-06-14T09:53:53;12.83;;;12.23;;
1276;SDS011;631;51.024;13.826;2023-06-14T09:58:55;12.20;;;11.60;;
1276;SDS011;631;51.024;13.826;2023-06-14T10:01:23;11.00;;;10.30;;
1276;SDS011;631;51.024;13.826;2023-06-14T10:03:50;11.67;;;11.07;;
1276;SDS011;631;51.024;13.826;2023-06-14T10:06:19;11.83;;;11.23;;
1276;SDS011;631;51.024;13.826;2023-06-14T10:08:49;12.73;;;12.13;;
1276;SDS011;631;51.024;13.826;2023-06-14T10:11:17;11.90;;;11.30;;
1276;SDS011;631;51.024;13.826;2023-06-14T10:13:42;11.33;;;10.63;;
1276;SDS011;631;51.024;13.826;2023-06-14T10:21:27;10.87;;;10.37;;
1276;SDS011;631;51.024;13.826;2023-06-14T10:23:59;13.17;;;11.33;;
1276;SDS011;631;51.024;13.826;2023-06-14T10:26:30;11.70;;;11.20;;
1276;SDS011;631;51.024;13.826;2023-06-14T10:29:16;11.03;;;10.53;;
1276;SDS011;631;51.024;13.826;2023-06-14T10:31:42;11.53;;;11.03;;
1276;SDS011;631;51.024;13.826;2023-06-14T10:34:08;12.00;;;11.40;;
1276;SDS011;631;51.024;13.826;2023-06-14T10:36:33;11.73;;;11.20;;
1276;SDS011;631;51.024;13.826;2023-06-14T10:39:01;11.13;;;10.53;;
1276;SDS011;631;51.024;13.826;2023-06-14T10:41:37;11.30;;;10.80;;
1276;SDS011;631;51.024;13.826;2023-06-14T10:46:39;10.93;;;10.43;;
1276;SDS011;631;51.024;13.826;2023-06-14T10:49:05;11.87;;;11.37;;
1276;SDS011;631;51.024;13.826;2023-06-14T10:51:41;12.23;;;11.63;;
1276;SDS011;631;51.024;13.826;2023-06-14T10:54:16;12.07;;;11.57;;
1276;SDS011;631;51.024;13.826;2023-06-14T10:56:50;11.57;;;10.97;;
1276;SDS011;631;51.024;13.826;2023-06-14T10:59:17;11.27;;;10.77;;
1276;SDS011;631;51.024;13.826;2023-06-14T11:04:16;11.00;;;10.50;;
1276;SDS011;631;51.024;13.826;2023-06-14T11:06:49;12.27;;;11.67;;
1276;SDS011;631;51.024;13.826;2023-06-14T11:11:44;12.83;;;12.10;;
1276;SDS011;631;51.024;13.826;2023-06-14T11:14:13;12.80;;;12.20;;
1276;SDS011;631;51.024;13.826;2023-06-14T11:16:38;13.10;;;12.40;;
1276;SDS011;631;51.024;13.826;2023-06-14T11:19:05;13.40;;;12.70;;
1276;SDS011;631;51.024;13.826;2023-06-14T11:21:32;13.77;;;13.07;;
1276;SDS011;631;51.024;13.826;2023-06-14T11:23:58;13.03;;;12.43;;
1276;SDS011;631;51.024;13.826;2023-06-14T11:26:27;13.63;;;12.90;;
1276;SDS011;631;51.024;13.826;2023-06-14T11:28:55;13.70;;;13.00;;
1276;SDS011;631;51.024;13.826;2023-06-14T11:31:25;13.90;;;13.20;;
1276;SDS011;631;51.024;13.826;2023-06-14T11:33:58;13.83;;;13.13;;
1276;SDS011;631;51.024;13.826;2023-06-14T11:36:31;14.10;;;13.30;;
1276;SDS011;631;51.024;13.826;2023-06-14T11:38:59;13.50;;;12.70;;
1276;SDS011;631;51.024;13.826;2023-06-14T11:41:31;14.00;;;13.30;;
1276;SDS011;631;51.024;13.826;2023-06-14T11:43:59;14.40;;;13.60;;
1276;SDS011;631;51.024;13.826;2023-06-14T11:46:26;13.43;;;12.73;;
1276;SDS011;631;51.024;13.826;2023-06-14T11:48:52;13.70;;;13.00;;
1276;SDS011;631;51.024;13.826;2023-06-14T11:51:18;12.97;;;12.27;;
1276;SDS011;631;51.024;13.826;2023-06-14T11:53:45;13.47;;;12.77;;
1276;SDS011;631;51.024;13.826;2023-06-14T11:56:11;14.10;;;13.30;;
1276;SDS011;631;51.024;13.826;2023-06-14T11:58:37;12.30;;;11.70;;
1276;SDS011;631;51.024;13.826;2023-06-14T12:01:03;12.83;;;12.13;;
1276;SDS011;631;51.024;13.826;2023-06-14T12:03:29;13.43;;;12.73;;
1276;SDS011;631;51.024;13.826;2023-06-14T12:06:04;13.00;;;12.30;;
1276;SDS011;631;51.024;13.826;2023-06-14T12:08:34;13.57;;;12.77;;
1276;SDS011;631;51.024;13.826;2023-06-14T12:11:03;13.70;;;13.00;;
1276;SDS011;631;51.024;13.826;2023-06-14T12:13:30;14.40;;;13.50;;
1276;SDS011;631;51.024;13.826;2023-06-14T12:15:56;14.07;;;13.27;;
1276;SDS011;631;51.024;13.826;2023-06-14T12:18:31;13.00;;;12.40;;
1276;SDS011;631;51.024;13.826;2023-06-14T12:21:00;14.00;;;13.30;;
1276;SDS011;631;51.024;13.826;2023-06-14T12:23:38;14.10;;;13.30;;
1276;SDS011;631;51.024;13.826;2023-06-14T12:26:05;14.50;;;13.70;;
1276;SDS011;631;51.024;13.826;2023-06-14T12:28:31;13.20;;;12.50;;
1276;SDS011;631;51.024;13.826;2023-06-14T12:30:58;13.87;;;13.10;;
1276;SDS011;631;51.024;13.826;2023-06-14T12:33:24;12.80;;;12.10;;
1276;SDS011;631;51.024;13.826;2023-06-14T12:35:50;13.13;;;12.43;;
1276;SDS011;631;51.024;13.826;2023-06-14T12:38:16;13.97;;;13.27;;
1276;SDS011;631;51.024;13.826;2023-06-14T12:40:42;15.03;;;13.90;;
1276;SDS011;631;51.024;13.826;2023-06-14T12:43:08;13.80;;;13.10;;
1276;SDS011;631;51.024;13.826;2023-06-14T12:45:33;12.43;;;11.70;;
1276;SDS011;631;51.024;13.826;2023-06-14T12:47:59;13.00;;;12.40;;
1276;SDS011;631;51.024;13.826;2023-06-14T12:50:24;13.17;;;12.57;;
1276;SDS011;631;51.024;13.826;2023-06-14T12:52:51;13.70;;;12.90;;
1276;SDS011;631;51.024;13.826;2023-06-14T12:55:16;14.37;;;13.67;;
1276;SDS011;631;51.024;13.826;2023-06-14T12:57:43;13.70;;;13.00;;
1276;SDS011;631;51.024;13.826;2023-06-14T13:00:09;13.40;;;12.77;;
1276;SDS011;631;51.024;13.826;2023-06-14T13:02:35;14.10;;;13.40;;
1276;SDS011;631;51.024;13.826;2023-06-14T13:05:01;14.20;;;13.40;;
1276;SDS011;631;51.024;13.826;2023-06-14T13:07:28;12.30;;;11.80;;
1276;SDS011;631;51.024;13.826;2023-06-14T13:09:54;13.63;;;13.03;;
1276;SDS011;631;51.024;13.826;2023-06-14T13:12:19;12.87;;;12.27;;
1276;SDS011;631;51.024;13.826;2023-06-14T13:14:45;13.73;;;13.03;;
1276;SDS011;631;51.024;13.826;2023-06-14T13:17:11;13.97;;;13.20;;
1276;SDS011;631;51.024;13.826;2023-06-14T13:19:36;13.00;;;12.40;;
1276;SDS011;631;51.024;13.826;2023-06-14T13:22:02;13.57;;;12.97;;
1276;SDS011;631;51.024;13.826;2023-06-14T13:24:28;13.43;;;12.83;;
1276;SDS011;631;51.024;13.826;2023-06-14T13:26:55;14.00;;;13.30;;
1276;SDS011;631;51.024;13.826;2023-06-14T13:29:22;14.03;;;13.23;;
1276;SDS011;631;51.024;13.826;2023-06-14T13:31:48;15.77;;;14.50;;
1276;SDS011;631;51.024;13.826;2023-06-14T13:34:14;13.67;;;12.97;;
1276;SDS011;631;51.024;13.826;2023-06-14T13:36:39;12.60;;;12.00;;
1276;SDS011;631;51.024;13.826;2023-06-14T13:39:05;14.60;;;13.80;;
1276;SDS011;631;51.024;13.826;2023-06-14T13:41:31;14.30;;;13.60;;
1276;SDS011;631;51.024;13.826;2023-06-14T13:44:00;13.90;;;13.20;;
1276;SDS011;631;51.024;13.826;2023-06-14T13:46:28;13.70;;;13.00;;
1276;SDS011;631;51.024;13.826;2023-06-14T13:48:55;13.60;;;12.90;;
1276;SDS011;631;51.024;13.826;2023-06-14T13:51:20;13.53;;;12.83;;
1276;SDS011;631;51.024;13.826;2023-06-14T13:53:47;13.03;;;12.33;;
1276;SDS011;631;51.024;13.826;2023-06-14T13:56:14;13.40;;;12.40;;
1276;SDS011;631;51.024;13.826;2023-06-14T13:58:39;12.97;;;12.37;;
1276;SDS011;631;51.024;13.826;2023-06-14T14:01:05;12.60;;;12.10;;
1276;SDS011;631;51.024;13.826;2023-06-14T14:03:31;13.33;;;12.63;;
1276;SDS011;631;51.024;13.826;2023-06-14T14:05:57;12.90;;;12.30;;
1276;SDS011;631;51.024;13.826;2023-06-14T14:08:22;12.50;;;11.90;;
1276;SDS011;631;51.024;13.826;2023-06-14T14:10:48;13.07;;;12.47;;
1276;SDS011;631;51.024;13.826;2023-06-14T14:13:14;13.10;;;12.50;;
1276;SDS011;631;51.024;13.826;2023-06-14T14:15:39;13.60;;;12.90;;
1276;SDS011;631;51.024;13.826;2023-06-14T14:18:05;12.77;;;12.17;;
1276;SDS011;631;51.024;13.826;2023-06-14T14:20:30;12.87;;;12.27;;
1276;SDS011;631;51.024;13.826;2023-06-14T14:22:56;12.20;;;11.67;;
1276;SDS011;631;51.024;13.826;2023-06-14T14:25:22;12.73;;;12.13;;
1276;SDS011;631;51.024;13.826;2023-06-14T14:27:47;13.17;;;12.47;;
1276;SDS011;631;51.024;13.826;2023-06-14T14:30:13;11.73;;;11.23;;
1276;SDS011;631;51.024;13.826;2023-06-14T14:32:39;13.20;;;12.60;;
1276;SDS011;631;51.024;13.826;2023-06-14T14:35:06;12.10;;;11.60;;
1276;SDS011;631;51.024;13.826;2023-06-14T14:37:32;12.97;;;12.37;;
1276;SDS011;631;51.024;13.826;2023-06-14T14:39:57;13.13;;;12.53;;
1276;SDS011;631;51.024;13.826;2023-06-14T14:42:23;11.83;;;11.33;;
1276;SDS011;631;51.024;13.826;2023-06-14T14:44:48;11.53;;;10.93;;
1276;SDS011;631;51.024;13.826;2023-06-14T14:47:14;12.67;;;12.07;;
1276;SDS011;631;51.024;13.826;2023-06-14T14:49:39;12.83;;;11.93;;
1276;SDS011;631;51.024;13.826;2023-06-14T14:52:06;12.70;;;12.10;;
1276;SDS011;631;51.024;13.826;2023-06-14T14:54:32;13.23;;;12.63;;
1276;SDS011;631;51.024;13.826;2023-06-14T14:56:58;13.30;;;12.67;;
1276;SDS011;631;51.024;13.826;2023-06-14T14:59:23;12.20;;;11.60;;
1276;SDS011;631;51.024;13.826;2023-06-14T15:01:49;12.00;;;11.50;;
1276;SDS011;631;51.024;13.826;2023-06-14T15:04:15;12.67;;;12.07;;
1276;SDS011;631;51.024;13.826;2023-06-14T15:06:41;12.90;;;12.30;;